createdAt,value
2022-09-03T00:00:16.717Z,1.60
2022-09-03T00:02:46.503Z,1.60
2022-09-03T00:05:23.312Z,1.50
2022-09-03T00:07:57.858Z,1.60
2022-09-03T00:10:30.582Z,1.67
2022-09-03T00:13:01.725Z,1.70
2022-09-03T00:15:31.362Z,1.60
2022-09-03T00:18:02.492Z,1.60
2022-09-03T00:20:34.170Z,1.83
2022-09-03T00:23:06.583Z,1.80
2022-09-03T00:25:37.599Z,1.93
2022-09-03T00:28:08.174Z,2.10
2022-09-03T00:30:37.138Z,1.87
2022-09-03T00:33:09.453Z,1.73
2022-09-03T00:35:42.789Z,1.83
2022-09-03T00:38:12.381Z,2.20
2022-09-03T00:40:47.093Z,1.70
2022-09-03T00:43:20.545Z,2.10
2022-09-03T00:45:52.786Z,2.37
2022-09-03T00:48:27.971Z,1.90
2022-09-03T00:51:14.400Z,1.90
2022-09-03T00:53:47.912Z,1.70
2022-09-03T00:56:20.900Z,2.07
2022-09-03T00:58:57.800Z,1.73
2022-09-03T01:01:30.156Z,2.03
2022-09-03T01:04:04.063Z,1.70
2022-09-03T01:06:34.537Z,1.80
2022-09-03T01:09:12.133Z,2.10
2022-09-03T01:11:47.257Z,2.30
2022-09-03T01:14:24.313Z,1.70
2022-09-03T01:17:12.625Z,1.50
2022-09-03T01:20:01.533Z,2.03
2022-09-03T01:22:47.483Z,1.47
2022-09-03T01:25:22.605Z,2.23
2022-09-03T01:28:03.029Z,1.90
2022-09-03T01:30:32.577Z,1.80
2022-09-03T01:33:03.529Z,1.73
2022-09-03T01:35:35.244Z,1.33
2022-09-03T01:38:09.022Z,1.83
2022-09-03T01:40:41.636Z,2.13
2022-09-03T01:43:15.931Z,1.80
2022-09-03T01:45:51.524Z,1.80
2022-09-03T01:48:32.709Z,2.20
2022-09-03T01:51:06.331Z,1.97
2022-09-03T01:53:44.043Z,1.70
2022-09-03T01:56:22.008Z,1.50
2022-09-03T01:59:03.705Z,2.00
2022-09-03T02:01:34.114Z,1.43
2022-09-03T02:04:02.782Z,2.00
2022-09-03T02:06:32.767Z,1.97
2022-09-03T02:09:01.041Z,1.67
2022-09-03T02:11:30.396Z,1.70
2022-09-03T02:14:00.115Z,2.00
2022-09-03T02:16:30.181Z,1.80
2022-09-03T02:19:01.149Z,1.77
2022-09-03T02:21:32.420Z,1.73
2022-09-03T02:24:00.916Z,1.87
2022-09-03T02:26:29.144Z,2.33
2022-09-03T02:28:57.648Z,2.20
2022-09-03T02:31:28.622Z,2.00
2022-09-03T02:33:58.359Z,1.97
2022-09-03T02:36:32.150Z,2.20
2022-09-03T02:39:00.472Z,2.03
2022-09-03T02:41:28.726Z,1.67
2022-09-03T02:44:00.538Z,2.30
2022-09-03T02:46:34.984Z,2.20
2022-09-03T02:49:03.317Z,1.70
2022-09-03T02:51:34.240Z,1.87
2022-09-03T02:54:03.182Z,1.97
2022-09-03T02:56:31.398Z,2.13
2022-09-03T02:59:00.235Z,1.97
2022-09-03T03:01:28.885Z,2.10
2022-09-03T03:04:02.165Z,1.93
2022-09-03T03:06:30.457Z,2.23
2022-09-03T03:08:58.930Z,1.73
2022-09-03T03:11:27.761Z,1.70
2022-09-03T03:13:55.978Z,2.13
2022-09-03T03:16:24.308Z,1.70
2022-09-03T03:18:52.805Z,2.00
2022-09-03T03:21:22.428Z,1.80
2022-09-03T03:23:50.888Z,2.10
2022-09-03T03:26:19.778Z,2.30
2022-09-03T03:28:48.823Z,2.03
2022-09-03T03:31:17.931Z,1.90
2022-09-03T03:33:46.329Z,2.10
2022-09-03T03:36:15.150Z,2.13
2022-09-03T03:38:45.140Z,2.40
2022-09-03T03:41:15.727Z,2.37
2022-09-03T03:43:43.966Z,2.27
2022-09-03T03:46:12.783Z,1.87
2022-09-03T03:48:41.318Z,1.47
2022-09-03T03:51:11.518Z,2.50
2022-09-03T03:53:40.425Z,1.57
2022-09-03T03:56:11.064Z,2.03
2022-09-03T03:58:43.935Z,2.20
2022-09-03T04:01:13.101Z,1.97
2022-09-03T04:03:41.788Z,1.90
2022-09-03T04:06:10.864Z,2.10
2022-09-03T04:08:40.041Z,2.13
2022-09-03T04:11:10.846Z,2.53
2022-09-03T04:13:40.179Z,1.90
2022-09-03T04:16:09.352Z,2.30
2022-09-03T04:18:38.114Z,2.10
2022-09-03T04:21:07.667Z,1.60
2022-09-03T04:23:36.779Z,1.60
2022-09-03T04:26:05.385Z,1.80
2022-09-03T04:28:36.019Z,1.70
2022-09-03T04:31:05.411Z,2.13
2022-09-03T04:33:35.657Z,2.87
2022-09-03T04:36:05.393Z,1.90
2022-09-03T04:38:33.775Z,2.60
2022-09-03T04:41:02.080Z,2.43
2022-09-03T04:43:30.641Z,1.90
2022-09-03T04:46:01.130Z,1.70
2022-09-03T04:48:29.890Z,2.43
2022-09-03T04:51:05.296Z,2.40
2022-09-03T04:53:34.239Z,1.60
2022-09-03T04:56:02.523Z,2.83
2022-09-03T04:58:31.379Z,2.27
2022-09-03T05:01:08.973Z,2.73
2022-09-03T05:03:38.512Z,2.53
2022-09-03T05:06:08.758Z,1.80
2022-09-03T05:08:37.581Z,1.90
2022-09-03T05:11:07.577Z,1.80
2022-09-03T05:13:38.741Z,2.50
2022-09-03T05:16:09.262Z,2.87
2022-09-03T05:18:38.354Z,2.00
2022-09-03T05:21:07.552Z,1.83
2022-09-03T05:23:37.974Z,2.00
2022-09-03T05:26:10.861Z,1.93
2022-09-03T05:28:40.541Z,1.63
2022-09-03T05:31:11.076Z,1.80
2022-09-03T05:33:40.176Z,2.30
2022-09-03T05:36:10.401Z,2.43
2022-09-03T05:38:39.017Z,1.80
2022-09-03T05:41:09.088Z,1.80
2022-09-03T05:43:37.365Z,2.60
2022-09-03T05:46:07.079Z,2.60
2022-09-03T05:48:37.653Z,2.47
2022-09-03T05:51:06.885Z,2.37
2022-09-03T05:53:36.152Z,2.97
2022-09-03T05:56:06.034Z,2.30
2022-09-03T05:58:34.736Z,2.63
2022-09-03T06:01:11.081Z,1.90
2022-09-03T06:03:40.761Z,2.70
2022-09-03T06:06:09.222Z,2.90
2022-09-03T06:08:38.840Z,2.40
2022-09-03T06:11:07.605Z,2.70
2022-09-03T06:13:36.525Z,2.90
2022-09-03T06:16:05.860Z,3.00
2022-09-03T06:18:34.388Z,2.77
2022-09-03T06:21:05.640Z,2.43
2022-09-03T06:23:34.557Z,2.60
2022-09-03T06:26:05.820Z,2.43
2022-09-03T06:28:36.087Z,2.50
2022-09-03T06:31:05.352Z,3.10
2022-09-03T06:33:34.481Z,1.93
2022-09-03T06:36:08.667Z,1.87
2022-09-03T06:38:38.051Z,2.37
2022-09-03T06:41:06.885Z,2.67
2022-09-03T06:43:35.846Z,2.70
2022-09-03T06:46:05.007Z,2.77
2022-09-03T06:48:34.314Z,2.20
2022-09-03T06:51:04.921Z,2.27
2022-09-03T06:53:34.254Z,2.83
2022-09-03T06:56:03.569Z,2.80
2022-09-03T06:58:32.145Z,3.07
2022-09-03T07:01:06.789Z,3.00
2022-09-03T07:03:35.235Z,2.90
2022-09-03T07:06:05.666Z,2.53
2022-09-03T07:08:34.585Z,2.70
2022-09-03T07:11:07.091Z,2.60
2022-09-03T07:13:35.836Z,2.50
2022-09-03T07:16:05.388Z,3.90
2022-09-03T07:18:34.063Z,2.50
2022-09-03T07:21:02.732Z,2.67
2022-09-03T07:23:33.109Z,2.10
2022-09-03T07:26:02.394Z,2.77
2022-09-03T07:28:32.081Z,2.77
2022-09-03T07:31:03.909Z,3.30
2022-09-03T07:33:34.068Z,2.90
2022-09-03T07:36:06.214Z,2.50
2022-09-03T07:38:35.996Z,2.77
2022-09-03T07:41:05.297Z,2.70
2022-09-03T07:43:35.830Z,2.20
2022-09-03T07:46:04.170Z,2.70
2022-09-03T07:48:37.146Z,2.77
2022-09-03T07:51:05.793Z,3.40
2022-09-03T07:53:34.464Z,2.70
2022-09-03T07:56:04.841Z,1.70
2022-09-03T07:58:33.673Z,1.90
2022-09-03T08:01:06.262Z,2.67
2022-09-03T08:03:35.117Z,2.57
2022-09-03T08:06:04.315Z,2.27
2022-09-03T08:08:34.543Z,3.63
2022-09-03T08:11:10.782Z,3.40
2022-09-03T08:13:40.771Z,3.30
2022-09-03T08:16:09.501Z,3.33
2022-09-03T08:18:39.232Z,2.73
2022-09-03T08:21:08.416Z,3.83
2022-09-03T08:23:38.939Z,3.30
2022-09-03T08:26:09.041Z,3.30
2022-09-03T08:28:37.496Z,3.33
2022-09-03T08:31:10.127Z,2.83
2022-09-03T08:33:38.728Z,2.97
2022-09-03T08:36:07.803Z,3.70
2022-09-03T08:38:36.541Z,3.37
2022-09-03T08:41:05.765Z,3.70
2022-09-03T08:43:38.294Z,2.90
2022-09-03T08:46:06.803Z,3.77
2022-09-03T08:48:35.476Z,4.20
2022-09-03T08:51:05.425Z,4.23
2022-09-03T08:53:38.177Z,4.27
2022-09-03T08:56:09.534Z,4.63
2022-09-03T08:58:39.462Z,3.97
2022-09-03T09:01:14.773Z,4.87
2022-09-03T09:03:50.957Z,5.27
2022-09-03T09:06:22.735Z,5.20
2022-09-03T09:08:57.666Z,5.10
2022-09-03T09:11:32.016Z,4.00
2022-09-03T09:14:04.887Z,4.63
2022-09-03T09:16:38.244Z,4.20
2022-09-03T09:19:11.900Z,4.37
2022-09-03T09:21:46.175Z,3.70
2022-09-03T09:24:23.297Z,4.67
2022-09-03T09:26:53.831Z,5.40
2022-09-03T09:29:23.468Z,3.10
2022-09-03T09:31:51.852Z,5.67
2022-09-03T09:34:20.109Z,4.67
2022-09-03T09:36:50.201Z,6.33
2022-09-03T09:39:19.290Z,5.80
2022-09-03T09:41:59.284Z,5.20
2022-09-03T09:44:28.913Z,4.37
2022-09-03T09:47:06.712Z,4.33
2022-09-03T09:49:36.253Z,4.10
2022-09-03T09:52:06.769Z,4.30
2022-09-03T09:54:35.073Z,4.27
2022-09-03T09:57:04.100Z,4.40
2022-09-03T09:59:34.811Z,4.73
2022-09-03T10:02:11.109Z,3.90
2022-09-03T10:04:44.003Z,3.83
2022-09-03T10:07:23.973Z,3.70
2022-09-03T10:10:02.362Z,3.20
2022-09-03T10:12:34.773Z,2.87
2022-09-03T10:15:17.976Z,2.87
2022-09-03T10:17:51.186Z,3.10
2022-09-03T10:20:31.924Z,3.80
2022-09-03T10:23:02.800Z,3.30
2022-09-03T10:25:39.121Z,3.30
2022-09-03T10:28:09.151Z,3.03
2022-09-03T10:30:49.160Z,2.50
2022-09-03T10:33:19.032Z,3.40
2022-09-03T10:35:48.837Z,3.40
2022-09-03T10:38:20.164Z,3.27
2022-09-03T10:40:54.313Z,3.27
2022-09-03T10:43:39.888Z,3.43
2022-09-03T10:46:12.351Z,2.83
2022-09-03T10:48:51.595Z,2.87
2022-09-03T10:51:21.479Z,2.77
2022-09-03T10:53:57.230Z,3.60
2022-09-03T10:56:33.074Z,3.23
2022-09-03T10:59:09.880Z,2.60
2022-09-03T11:01:44.984Z,2.87
2022-09-03T11:04:19.910Z,2.93
2022-09-03T11:06:51.639Z,4.50
2022-09-03T11:09:22.077Z,2.70
2022-09-03T11:11:53.141Z,3.10
2022-09-03T11:14:27.066Z,3.60
2022-09-03T11:17:00.857Z,3.90
2022-09-03T11:19:35.160Z,3.40
2022-09-03T11:22:03.645Z,3.83
2022-09-03T11:24:34.205Z,2.83
2022-09-03T11:27:07.130Z,3.60
2022-09-03T11:29:38.215Z,3.37
2022-09-03T11:32:11.947Z,3.00
2022-09-03T11:34:47.761Z,3.50
2022-09-03T11:37:20.769Z,3.37
2022-09-03T11:39:56.573Z,3.10
2022-09-03T11:42:36.874Z,2.97
2022-09-03T11:45:30.320Z,2.93
2022-09-03T11:48:00.513Z,3.40
2022-09-03T11:50:30.143Z,3.23
2022-09-03T11:53:09.153Z,4.07
2022-09-03T11:55:52.018Z,3.70
2022-09-03T11:58:25.289Z,3.70
2022-09-03T12:00:55.097Z,3.07
2022-09-03T12:03:29.112Z,4.33
2022-09-03T12:06:13.891Z,3.37
2022-09-03T12:08:59.796Z,3.63
2022-09-03T12:11:39.122Z,3.20
2022-09-03T12:14:13.867Z,3.40
2022-09-03T12:16:56.812Z,3.77
2022-09-03T12:19:30.934Z,4.50
2022-09-03T12:22:01.647Z,3.70
2022-09-03T12:24:37.709Z,3.70
2022-09-03T12:27:10.141Z,4.13
2022-09-03T12:29:40.682Z,3.60
2022-09-03T12:32:10.257Z,3.57
2022-09-03T12:34:39.932Z,3.87
2022-09-03T12:38:04.555Z,4.70
2022-09-03T12:40:18.080Z,4.07
2022-09-03T12:42:46.422Z,4.80
2022-09-03T12:45:16.457Z,4.47
2022-09-03T12:47:45.382Z,4.50
2022-09-03T12:50:16.884Z,3.73
2022-09-03T12:52:47.038Z,3.87
2022-09-03T12:55:27.438Z,4.23
2022-09-03T12:58:02.591Z,3.57
2022-09-03T13:00:33.054Z,4.37
2022-09-03T13:03:03.082Z,4.03
2022-09-03T13:05:34.053Z,4.03
2022-09-03T13:08:04.193Z,3.50
2022-09-03T13:10:33.998Z,3.63
2022-09-03T13:13:03.539Z,4.20
2022-09-03T13:15:32.561Z,3.90
2022-09-03T13:18:10.765Z,3.40
2022-09-03T13:20:43.730Z,3.93
2022-09-03T13:23:16.858Z,3.70
2022-09-03T13:25:52.429Z,3.47
2022-09-03T13:28:27.589Z,4.00
2022-09-03T13:30:58.132Z,4.13
2022-09-03T13:33:29.697Z,4.80
2022-09-03T13:36:04.012Z,4.07
2022-09-03T13:38:37.273Z,4.30
2022-09-03T13:41:11.094Z,3.87
2022-09-03T13:43:42.862Z,4.13
2022-09-03T13:46:15.074Z,4.10
2022-09-03T13:49:02.980Z,4.07
2022-09-03T13:51:34.574Z,4.60
2022-09-03T13:54:11.558Z,4.93
2022-09-03T13:56:48.882Z,4.40
2022-09-03T13:59:20.842Z,3.60
2022-09-03T14:02:02.627Z,4.40
2022-09-03T14:04:36.432Z,4.50
2022-09-03T14:07:10.226Z,3.70
2022-09-03T14:09:44.494Z,3.87
2022-09-03T14:12:21.698Z,3.57
2022-09-03T14:14:54.013Z,4.10
2022-09-03T14:17:28.624Z,4.30
2022-09-03T14:19:59.809Z,4.70
2022-09-03T14:22:34.778Z,3.47
2022-09-03T14:25:04.599Z,4.73
2022-09-03T14:27:34.839Z,3.43
2022-09-03T14:30:04.090Z,4.37
2022-09-03T14:32:37.916Z,3.97
2022-09-03T14:35:25.072Z,5.47
2022-09-03T14:38:07.723Z,4.10
2022-09-03T14:40:41.734Z,5.20
2022-09-03T14:43:16.911Z,3.83
2022-09-03T14:45:54.295Z,3.53
2022-09-03T14:48:32.329Z,3.93
2022-09-03T14:51:08.184Z,3.93
2022-09-03T14:53:58.892Z,4.10
2022-09-03T14:56:31.320Z,4.30
2022-09-03T14:59:05.860Z,4.00
2022-09-03T15:01:38.989Z,4.00
2022-09-03T15:04:32.356Z,5.20
2022-09-03T15:07:09.958Z,5.20
2022-09-03T15:09:44.339Z,5.30
2022-09-03T15:12:20.641Z,5.40
2022-09-03T15:14:54.701Z,4.27
2022-09-03T15:17:28.469Z,4.80
2022-09-03T15:20:02.232Z,5.90
2022-09-03T15:22:37.014Z,5.50
2022-09-03T15:25:13.249Z,3.90
2022-09-03T15:27:50.656Z,4.20
2022-09-03T15:30:20.272Z,3.20
2022-09-03T15:32:51.749Z,3.63
2022-09-03T15:35:33.631Z,3.20
2022-09-03T15:38:04.553Z,3.60
2022-09-03T15:40:37.308Z,2.10
2022-09-03T15:43:08.332Z,2.27
2022-09-03T15:45:38.690Z,2.40
2022-09-03T15:48:15.441Z,3.27
2022-09-03T15:50:52.676Z,3.37
2022-09-03T15:53:27.118Z,3.03
2022-09-03T15:56:06.790Z,3.40
2022-09-03T15:58:40.129Z,3.70
2022-09-03T16:01:13.497Z,4.03
2022-09-03T16:03:47.035Z,3.37
2022-09-03T16:06:22.971Z,4.27
2022-09-03T16:08:54.446Z,4.00
2022-09-03T16:11:31.140Z,3.53
2022-09-03T16:14:04.687Z,3.77
2022-09-03T16:16:44.705Z,3.80
2022-09-03T16:19:17.332Z,4.50
2022-09-03T16:21:48.780Z,4.30
2022-09-03T16:24:19.784Z,4.33
2022-09-03T16:26:53.144Z,3.90
2022-09-03T16:29:27.005Z,3.80
2022-09-03T16:32:10.335Z,3.70
2022-09-03T16:34:44.465Z,5.70
2022-09-03T16:37:16.701Z,4.20
2022-09-03T16:39:50.966Z,5.13
2022-09-03T16:42:25.611Z,3.40
2022-09-03T16:45:00.769Z,7.87
2022-09-03T16:47:35.491Z,3.50
2022-09-03T16:50:08.645Z,4.53
2022-09-03T16:52:42.926Z,4.57
2022-09-03T16:55:22.028Z,3.60
2022-09-03T16:58:08.012Z,4.50
2022-09-03T17:00:42.509Z,3.60
2022-09-03T17:03:26.386Z,3.77
2022-09-03T17:06:11.162Z,3.60
2022-09-03T17:08:45.409Z,3.77
2022-09-03T17:11:19.049Z,3.73
2022-09-03T17:13:54.427Z,4.27
2022-09-03T17:16:28.657Z,5.57
2022-09-03T17:19:00.788Z,7.80
2022-09-03T17:21:36.573Z,4.57
2022-09-03T17:24:16.304Z,4.73
2022-09-03T17:26:54.384Z,4.47
2022-09-03T17:29:30.968Z,4.00
2022-09-03T17:32:07.536Z,3.73
2022-09-03T17:34:42.321Z,2.87
2022-09-03T17:37:18.304Z,3.87
2022-09-03T17:39:50.875Z,3.87
2022-09-03T17:42:22.023Z,4.67
2022-09-03T17:45:00.561Z,3.30
2022-09-03T17:47:34.960Z,2.70
2022-09-03T17:50:09.501Z,3.47
2022-09-03T17:52:40.686Z,3.37
2022-09-03T17:55:14.833Z,2.83
2022-09-03T17:57:47.234Z,2.73
2022-09-03T18:00:24.099Z,3.20
2022-09-03T18:02:55.285Z,3.20
2022-09-03T18:05:26.192Z,3.30
2022-09-03T18:07:58.569Z,3.23
2022-09-03T18:10:29.768Z,5.50
2022-09-03T18:13:03.892Z,3.30
2022-09-03T18:15:38.591Z,3.10
2022-09-03T18:18:09.239Z,3.63
2022-09-03T18:21:21.512Z,3.50
2022-09-03T18:24:08.994Z,3.10
2022-09-03T18:26:57.948Z,2.90
2022-09-03T18:29:52.408Z,3.57
2022-09-03T18:32:41.531Z,3.00
2022-09-03T18:35:28.401Z,2.53
2022-09-03T18:38:14.227Z,3.57
2022-09-03T18:41:06.298Z,2.70
2022-09-03T18:43:54.439Z,6.43
2022-09-03T18:48:01.246Z,3.67
2022-09-03T18:49:54.628Z,4.30
2022-09-03T18:52:42.909Z,5.73
2022-09-03T18:55:34.886Z,7.53
2022-09-03T18:58:27.156Z,3.57
2022-09-03T19:01:18.705Z,3.10
2022-09-03T19:04:12.096Z,3.67
2022-09-03T19:07:04.810Z,3.20
2022-09-03T19:09:56.446Z,3.00
2022-09-03T19:12:51.790Z,3.03
2022-09-03T19:15:47.836Z,2.93
2022-09-03T19:18:38.663Z,3.30
2022-09-03T19:21:29.195Z,3.50
2022-09-03T19:24:21.007Z,3.30
2022-09-03T19:27:37.541Z,2.57
2022-09-03T19:30:22.904Z,3.47
2022-09-03T19:33:17.138Z,3.30
2022-09-03T19:36:06.253Z,2.87
2022-09-03T19:38:59.852Z,3.03
2022-09-03T19:41:49.569Z,3.20
2022-09-03T19:44:46.236Z,2.60
2022-09-03T19:47:39.034Z,2.80
2022-09-03T19:50:32.051Z,3.37
2022-09-03T19:53:19.692Z,2.87
2022-09-03T19:56:07.842Z,3.57
2022-09-03T19:58:57.660Z,3.10
2022-09-03T20:01:46.192Z,3.00
2022-09-03T20:04:33.607Z,2.97
2022-09-03T20:07:21.005Z,3.50
2022-09-03T20:10:07.461Z,3.20
2022-09-03T20:12:37.516Z,3.37
2022-09-03T20:15:08.390Z,3.13
2022-09-03T20:17:39.177Z,3.60
2022-09-03T20:20:15.178Z,3.03
2022-09-03T20:22:49.036Z,4.67
2022-09-03T20:25:35.136Z,3.63
2022-09-03T20:28:06.854Z,3.23
2022-09-03T20:30:38.706Z,2.93
2022-09-03T20:33:13.555Z,2.90
2022-09-03T20:35:50.401Z,3.07
2022-09-03T20:38:26.861Z,3.20
2022-09-03T20:40:59.423Z,2.93
2022-09-03T20:43:47.475Z,2.70
2022-09-03T20:46:23.194Z,2.63
2022-09-03T20:48:56.011Z,3.23
2022-09-03T20:51:28.353Z,2.10
2022-09-03T20:54:08.696Z,2.73
2022-09-03T20:56:43.671Z,2.47
2022-09-03T20:59:13.763Z,2.63
2022-09-03T21:01:48.996Z,2.60
2022-09-03T21:04:23.202Z,2.47
2022-09-03T21:06:53.898Z,2.70
2022-09-03T21:09:27.652Z,2.30
2022-09-03T21:12:03.038Z,2.87
2022-09-03T21:14:35.996Z,2.37
2022-09-03T21:17:15.758Z,2.43
2022-09-03T21:19:55.970Z,2.83
2022-09-03T21:22:29.880Z,2.67
2022-09-03T21:24:59.873Z,2.73
2022-09-03T21:27:32.421Z,2.30
2022-09-03T21:30:02.232Z,2.43
2022-09-03T21:32:35.670Z,2.53
2022-09-03T21:35:06.558Z,2.40
2022-09-03T21:37:37.021Z,2.30
2022-09-03T21:40:08.053Z,2.80
2022-09-03T21:42:38.217Z,2.87
2022-09-03T21:45:09.831Z,2.73
2022-09-03T21:47:43.298Z,2.37
2022-09-03T21:50:17.025Z,2.57
2022-09-03T21:52:49.327Z,2.33
2022-09-03T21:55:27.589Z,2.40
2022-09-03T21:58:04.524Z,2.30
2022-09-03T22:00:33.353Z,2.67
2022-09-03T22:03:02.990Z,2.33
2022-09-03T22:05:35.055Z,2.23
2022-09-03T22:08:08.269Z,2.33
2022-09-03T22:10:39.491Z,2.60
2022-09-03T22:13:14.625Z,2.47
2022-09-03T22:15:44.588Z,3.13
2022-09-03T22:18:19.461Z,2.97
2022-09-03T22:20:52.701Z,2.70
2022-09-03T22:23:24.810Z,2.40
2022-09-03T22:25:58.967Z,2.43
2022-09-03T22:28:28.584Z,2.33
2022-09-03T22:31:00.828Z,2.33
2022-09-03T22:33:34.393Z,2.40
2022-09-03T22:36:04.797Z,2.73
2022-09-03T22:38:42.916Z,2.50
2022-09-03T22:41:20.234Z,2.20
2022-09-03T22:43:52.217Z,2.33
2022-09-03T22:46:21.205Z,2.70
2022-09-03T22:49:10.354Z,2.17
2022-09-03T22:51:45.254Z,2.23
2022-09-03T22:54:21.395Z,2.07
2022-09-03T22:56:50.119Z,2.47
2022-09-03T22:59:20.895Z,3.30
2022-09-03T23:01:50.407Z,1.70
2022-09-03T23:04:22.583Z,2.40
2022-09-03T23:06:57.158Z,1.87
2022-09-03T23:09:27.300Z,2.17
2022-09-03T23:11:58.717Z,3.40
2022-09-03T23:14:29.368Z,2.07
2022-09-03T23:16:59.960Z,2.03
2022-09-03T23:19:40.730Z,1.83
2022-09-03T23:22:13.172Z,1.77
2022-09-03T23:24:44.625Z,2.20
2022-09-03T23:27:17.350Z,2.30
2022-09-03T23:29:47.344Z,1.87
2022-09-03T23:32:15.942Z,2.50
2022-09-03T23:34:44.241Z,2.17
2022-09-03T23:37:36.485Z,1.70
2022-09-03T23:40:12.785Z,1.80
2022-09-03T23:42:48.764Z,2.10
2022-09-03T23:45:21.897Z,1.83
2022-09-03T23:47:54.815Z,2.20
2022-09-03T23:50:29.519Z,2.07
2022-09-03T23:53:04.849Z,2.60
2022-09-03T23:55:39.037Z,1.70
2022-09-03T23:58:11.413Z,1.93
